sensor_id;sensor_type;location;lat;lon;timestamp;pressure;altitude;pressure_sealevel;temperature;humidity
46724;BME280;32463;48.298;11.620;2023-04-01T00:02:24;95074.22;;;7.53;100.00
46724;BME280;32463;48.298;11.620;2023-04-01T00:04:51;95049.41;;;7.52;100.00
46724;BME280;32463;48.298;11.620;2023-04-01T00:07:17;95060.34;;;7.54;100.00
46724;BME280;32463;48.298;11.620;2023-04-01T00:09:44;95048.47;;;7.44;100.00
46724;BME280;32463;48.298;11.620;2023-04-01T00:12:11;95043.00;;;7.48;100.00
46724;BME280;32463;48.298;11.620;2023-04-01T00:14:37;95058.63;;;7.46;100.00
46724;BME280;32463;48.298;11.620;2023-04-01T00:17:04;95045.91;;;7.44;100.00
46724;BME280;32463;48.298;11.620;2023-04-01T00:19:31;95052.06;;;7.35;100.00
46724;BME280;32463;48.298;11.620;2023-04-01T00:21:58;95047.28;;;7.32;100.00
46724;BME280;32463;48.298;11.620;2023-04-01T00:24:25;95052.47;;;7.24;100.00
46724;BME280;32463;48.298;11.620;2023-04-01T00:26:51;95045.72;;;7.23;100.00
46724;BME280;32463;48.298;11.620;2023-04-01T00:29:18;95036.38;;;7.22;100.00
46724;BME280;32463;48.298;11.620;2023-04-01T00:31:45;95055.09;;;7.16;100.00
46724;BME280;32463;48.298;11.620;2023-04-01T00:34:12;95056.53;;;7.19;100.00
46724;BME280;32463;48.298;11.620;2023-04-01T00:36:38;95048.03;;;7.10;100.00
46724;BME280;32463;48.298;11.620;2023-04-01T00:39:05;95055.38;;;7.21;100.00
46724;BME280;32463;48.298;11.620;2023-04-01T00:41:31;95053.78;;;7.20;100.00
46724;BME280;32463;48.298;11.620;2023-04-01T00:46:45;95053.97;;;7.10;100.00
46724;BME280;32463;48.298;11.620;2023-04-01T00:49:12;95047.34;;;7.16;100.00
46724;BME280;32463;48.298;11.620;2023-04-01T00:51:41;95053.78;;;7.20;100.00
46724;BME280;32463;48.298;11.620;2023-04-01T00:54:09;95048.63;;;7.20;100.00
46724;BME280;32463;48.298;11.620;2023-04-01T00:56:48;95046.09;;;7.12;100.00
46724;BME280;32463;48.298;11.620;2023-04-01T00:59:22;95045.06;;;7.21;100.00
46724;BME280;32463;48.298;11.620;2023-04-01T01:01:49;95028.34;;;7.17;100.00
46724;BME280;32463;48.298;11.620;2023-04-01T01:04:30;95044.09;;;7.22;100.00
46724;BME280;32463;48.298;11.620;2023-04-01T01:09:52;95046.56;;;7.16;100.00
46724;BME280;32463;48.298;11.620;2023-04-01T01:12:34;95054.13;;;7.17;100.00
46724;BME280;32463;48.298;11.620;2023-04-01T01:17:40;95048.78;;;7.19;100.00
46724;BME280;32463;48.298;11.620;2023-04-01T01:23:28;95055.38;;;7.21;100.00
46724;BME280;32463;48.298;11.620;2023-04-01T01:31:18;95048.47;;;7.22;100.00
46724;BME280;32463;48.298;11.620;2023-04-01T01:34:19;95043.81;;;7.17;100.00
46724;BME280;32463;48.298;11.620;2023-04-01T01:36:53;95045.53;;;7.25;100.00
46724;BME280;32463;48.298;11.620;2023-04-01T01:39:25;95052.31;;;7.26;100.00
46724;BME280;32463;48.298;11.620;2023-04-01T01:41:56;95036.97;;;7.32;100.00
46724;BME280;32463;48.298;11.620;2023-04-01T01:44:25;95056.66;;;7.25;100.00
46724;BME280;32463;48.298;11.620;2023-04-01T01:46:54;95040.25;;;7.18;100.00
46724;BME280;32463;48.298;11.620;2023-04-01T01:49:22;95043.81;;;7.17;100.00
46724;BME280;32463;48.298;11.620;2023-04-01T01:51:49;95032.53;;;7.18;100.00
46724;BME280;32463;48.298;11.620;2023-04-01T01:54:16;95040.94;;;7.12;100.00
46724;BME280;32463;48.298;11.620;2023-04-01T01:56:51;95047.22;;;7.09;100.00
46724;BME280;32463;48.298;11.620;2023-04-01T01:59:22;95044.00;;;7.07;100.00
46724;BME280;32463;48.298;11.620;2023-04-01T02:01:52;95043.69;;;7.10;100.00
46724;BME280;32463;48.298;11.620;2023-04-01T02:04:22;95043.81;;;7.17;100.00
46724;BME280;32463;48.298;11.620;2023-04-01T02:07:28;95046.06;;;7.20;100.00
46724;BME280;32463;48.298;11.620;2023-04-01T02:09:57;95041.53;;;7.22;100.00
46724;BME280;32463;48.298;11.620;2023-04-01T02:12:24;95048.03;;;7.10;100.00
46724;BME280;32463;48.298;11.620;2023-04-01T02:15:03;95040.25;;;7.18;100.00
46724;BME280;32463;48.298;11.620;2023-04-01T02:17:33;95058.81;;;7.14;100.00
46724;BME280;32463;48.298;11.620;2023-04-01T02:20:14;95048.00;;;7.18;100.00
46724;BME280;32463;48.298;11.620;2023-04-01T02:22:46;95053.78;;;7.20;100.00
46724;BME280;32463;48.298;11.620;2023-04-01T02:25:18;95049.44;;;7.21;100.00
46724;BME280;32463;48.298;11.620;2023-04-01T02:27:46;95042.53;;;7.13;100.00
46724;BME280;32463;48.298;11.620;2023-04-01T02:30:15;95053.16;;;7.18;100.00
46724;BME280;32463;48.298;11.620;2023-04-01T02:32:42;95058.31;;;7.18;100.00
46724;BME280;32463;48.298;11.620;2023-04-01T02:35:10;95045.06;;;7.21;100.00
46724;BME280;32463;48.298;11.620;2023-04-01T02:37:38;95054.75;;;7.19;100.00
46724;BME280;32463;48.298;11.620;2023-04-01T02:40:10;95055.38;;;7.21;100.00
46724;BME280;32463;48.298;11.620;2023-04-01T02:42:36;95054.44;;;7.14;100.00
46724;BME280;32463;48.298;11.620;2023-04-01T02:45:04;95063.47;;;7.18;100.00
46724;BME280;32463;48.298;11.620;2023-04-01T02:47:31;95065.38;;;7.24;100.00
46724;BME280;32463;48.298;11.620;2023-04-01T02:49:57;95062.47;;;7.19;100.00
46724;BME280;32463;48.298;11.620;2023-04-01T02:52:25;95064.72;;;7.22;100.00
46724;BME280;32463;48.298;11.620;2023-04-01T02:54:51;95069.88;;;7.22;100.00
46724;BME280;32463;48.298;11.620;2023-04-01T02:57:18;95072.03;;;7.10;100.00
46724;BME280;32463;48.298;11.620;2023-04-01T02:59:45;95071.28;;;7.02;100.00
46724;BME280;32463;48.298;11.620;2023-04-01T03:02:11;95069.38;;;6.96;100.00
46724;BME280;32463;48.298;11.620;2023-04-01T03:04:38;95061.63;;;6.96;100.00
46724;BME280;32463;48.298;11.620;2023-04-01T03:07:04;95082.03;;;7.05;100.00
46724;BME280;32463;48.298;11.620;2023-04-01T03:09:31;95078.03;;;7.03;100.00
46724;BME280;32463;48.298;11.620;2023-04-01T03:11:57;95068.63;;;7.10;100.00
46724;BME280;32463;48.298;11.620;2023-04-01T03:14:24;95075.25;;;7.13;100.00
46724;BME280;32463;48.298;11.620;2023-04-01T03:16:50;95078.94;;;7.10;100.00
46724;BME280;32463;48.298;11.620;2023-04-01T03:19:16;95072.06;;;7.02;100.00
46724;BME280;32463;48.298;11.620;2023-04-01T03:21:43;95080.31;;;6.98;100.00
46724;BME280;32463;48.298;11.620;2023-04-01T03:24:09;95076.13;;;6.97;100.00
46724;BME280;32463;48.298;11.620;2023-04-01T03:26:36;95087.06;;;6.99;100.00
46724;BME280;32463;48.298;11.620;2023-04-01T03:29:02;95089.97;;;6.96;100.00
46724;BME280;32463;48.298;11.620;2023-04-01T03:31:28;95085.31;;;6.91;100.00
46724;BME280;32463;48.298;11.620;2023-04-01T03:33:55;95088.84;;;6.90;100.00
46724;BME280;32463;48.298;11.620;2023-04-01T03:36:22;95089.69;;;6.83;100.00
46724;BME280;32463;48.298;11.620;2023-04-01T03:38:48;95097.13;;;6.69;100.00
46724;BME280;32463;48.298;11.620;2023-04-01T03:41:16;95101.59;;;6.75;100.00
46724;BME280;32463;48.298;11.620;2023-04-01T03:43:43;95107.22;;;6.79;100.00
46724;BME280;32463;48.298;11.620;2023-04-01T03:46:10;95101.66;;;6.67;100.00
46724;BME280;32463;48.298;11.620;2023-04-01T03:48:37;95103.28;;;6.60;100.00
46724;BME280;32463;48.298;11.620;2023-04-01T03:51:07;95118.06;;;6.66;100.00
46724;BME280;32463;48.298;11.620;2023-04-01T03:53:34;95111.91;;;6.75;100.00
46724;BME280;32463;48.298;11.620;2023-04-01T03:56:04;95113.84;;;6.73;100.00
46724;BME280;32463;48.298;11.620;2023-04-01T03:58:31;95117.22;;;6.74;100.00
46724;BME280;32463;48.298;11.620;2023-04-01T04:00:57;95115.44;;;6.74;100.00
46724;BME280;32463;48.298;11.620;2023-04-01T04:03:24;95102.28;;;6.69;100.00
46724;BME280;32463;48.298;11.620;2023-04-01T04:05:51;95118.50;;;6.78;100.00
46724;BME280;32463;48.298;11.620;2023-04-01T04:08:17;95119.00;;;6.73;100.00
46724;BME280;32463;48.298;11.620;2023-04-01T04:10:46;95115.75;;;6.80;100.00
46724;BME280;32463;48.298;11.620;2023-04-01T04:13:13;95114.19;;;6.70;100.00
46724;BME280;32463;48.298;11.620;2023-04-01T04:15:39;95110.81;;;6.70;100.00
46724;BME280;32463;48.298;11.620;2023-04-01T04:18:06;95113.84;;;6.73;100.00
46724;BME280;32463;48.298;11.620;2023-04-01T04:20:32;95123.19;;;6.74;100.00
46724;BME280;32463;48.298;11.620;2023-04-01T04:23:00;95124.16;;;6.73;100.00
46724;BME280;32463;48.298;11.620;2023-04-01T04:25:26;95132.06;;;6.72;100.00
46724;BME280;32463;48.298;11.620;2023-04-01T04:27:53;95120.31;;;6.69;100.00
46724;BME280;32463;48.298;11.620;2023-04-01T04:30:19;95120.31;;;6.61;100.00
46724;BME280;32463;48.298;11.620;2023-04-01T04:32:45;95119.38;;;6.54;100.00
46724;BME280;32463;48.298;11.620;2023-04-01T04:35:12;95123.22;;;6.50;100.00
46724;BME280;32463;48.298;11.620;2023-04-01T04:37:38;95114.53;;;6.51;100.00
46724;BME280;32463;48.298;11.620;2023-04-01T04:40:05;95125.31;;;6.55;100.00
46724;BME280;32463;48.298;11.620;2023-04-01T04:42:32;95124.50;;;6.54;100.00
46724;BME280;32463;48.298;11.620;2023-04-01T04:44:58;95130.16;;;6.58;100.00
46724;BME280;32463;48.298;11.620;2023-04-01T04:47:25;95129.03;;;6.60;100.00
46724;BME280;32463;48.298;11.620;2023-04-01T04:49:51;95131.59;;;6.60;100.00
46724;BME280;32463;48.298;11.620;2023-04-01T04:52:18;95128.69;;;6.63;100.00
46724;BME280;32463;48.298;11.620;2023-04-01T04:54:44;95125.97;;;6.65;100.00
46724;BME280;32463;48.298;11.620;2023-04-01T04:57:11;95135.44;;;6.64;100.00
46724;BME280;32463;48.298;11.620;2023-04-01T04:59:37;95124.66;;;6.61;100.00
46724;BME280;32463;48.298;11.620;2023-04-01T05:02:03;95122.75;;;6.63;100.00
46724;BME280;32463;48.298;11.620;2023-04-01T05:04:34;95134.16;;;6.60;100.00
46724;BME280;32463;48.298;11.620;2023-04-01T05:07:01;95123.88;;;6.60;100.00
46724;BME280;32463;48.298;11.620;2023-04-01T05:09:27;95125.16;;;6.56;100.00
46724;BME280;32463;48.298;11.620;2023-04-01T05:11:53;95128.69;;;6.63;100.00
46724;BME280;32463;48.298;11.620;2023-04-01T05:14:20;95125.16;;;6.64;100.00
46724;BME280;32463;48.298;11.620;2023-04-01T05:16:46;95120.81;;;6.65;100.00
46724;BME280;32463;48.298;11.620;2023-04-01T05:19:14;95129.66;;;6.70;100.00
46724;BME280;32463;48.298;11.620;2023-04-01T05:21:40;95142.31;;;6.88;100.00
46724;BME280;32463;48.298;11.620;2023-04-01T05:24:08;95126.69;;;6.98;100.00
46724;BME280;32463;48.298;11.620;2023-04-01T05:26:35;95124.06;;;7.06;100.00
46724;BME280;32463;48.298;11.620;2023-04-01T05:29:02;95118.91;;;7.06;100.00
46724;BME280;32463;48.298;11.620;2023-04-01T05:31:29;95124.03;;;7.14;100.00
46724;BME280;32463;48.298;11.620;2023-04-01T05:33:56;95117.59;;;7.18;100.00
46724;BME280;32463;48.298;11.620;2023-04-01T05:36:22;95118.84;;;7.22;100.00
46724;BME280;32463;48.298;11.620;2023-04-01T05:38:48;95117.84;;;7.31;100.00
46724;BME280;32463;48.298;11.620;2023-04-01T05:41:15;95121.50;;;7.37;100.00
46724;BME280;32463;48.298;11.620;2023-04-01T05:43:42;95121.00;;;7.41;100.00
46724;BME280;32463;48.298;11.620;2023-04-01T05:46:09;95126.47;;;7.47;100.00
46724;BME280;32463;48.298;11.620;2023-04-01T05:48:35;95115.81;;;7.50;100.00
46724;BME280;32463;48.298;11.620;2023-04-01T05:51:02;95126.94;;;7.50;100.00
46724;BME280;32463;48.298;11.620;2023-04-01T05:53:29;95129.22;;;7.45;100.00
46724;BME280;32463;48.298;11.620;2023-04-01T05:55:55;95125.19;;;7.42;100.00
46724;BME280;32463;48.298;11.620;2023-04-01T05:58:22;95130.34;;;7.42;100.00
46724;BME280;32463;48.298;11.620;2023-04-01T06:00:48;95123.38;;;7.51;100.00
46724;BME280;32463;48.298;11.620;2023-04-01T06:03:14;95132.81;;;7.67;100.00
46724;BME280;32463;48.298;11.620;2023-04-01T06:05:43;95129.53;;;7.73;100.00
46724;BME280;32463;48.298;11.620;2023-04-01T06:08:12;95128.97;;;7.63;100.00
46724;BME280;32463;48.298;11.620;2023-04-01T06:11:13;95128.63;;;7.66;100.00
46724;BME280;32463;48.298;11.620;2023-04-01T06:14:01;95135.38;;;7.67;100.00
46724;BME280;32463;48.298;11.620;2023-04-01T06:16:58;95132.47;;;7.70;100.00
46724;BME280;32463;48.298;11.620;2023-04-01T06:25:04;95125.63;;;7.85;100.00
46724;BME280;32463;48.298;11.620;2023-04-01T06:30:35;95127.25;;;8.01;100.00
46724;BME280;32463;48.298;11.620;2023-04-01T06:33:26;95129.75;;;7.94;100.00
46724;BME280;32463;48.298;11.620;2023-04-01T06:46:21;95129.88;;;8.24;100.00
46724;BME280;32463;48.298;11.620;2023-04-01T06:56:36;95123.88;;;8.46;100.00
46724;BME280;32463;48.298;11.620;2023-04-01T06:59:16;95136.97;;;8.44;100.00
46724;BME280;32463;48.298;11.620;2023-04-01T07:01:51;95131.97;;;8.43;100.00
46724;BME280;32463;48.298;11.620;2023-04-01T07:04:29;95129.50;;;8.50;100.00
46724;BME280;32463;48.298;11.620;2023-04-01T07:07:29;95140.81;;;8.63;100.00
46724;BME280;32463;48.298;11.620;2023-04-01T07:09:58;95132.28;;;8.63;100.00
46724;BME280;32463;48.298;11.620;2023-04-01T07:14:56;95147.66;;;8.56;100.00
46724;BME280;32463;48.298;11.620;2023-04-01T07:17:28;95133.91;;;8.78;100.00
46724;BME280;32463;48.298;11.620;2023-04-01T07:20:02;95137.19;;;8.87;100.00
46724;BME280;32463;48.298;11.620;2023-04-01T07:22:36;95133.28;;;8.91;100.00
46724;BME280;32463;48.298;11.620;2023-04-01T07:25:20;95128.91;;;8.92;100.00
46724;BME280;32463;48.298;11.620;2023-04-01T07:27:53;95131.16;;;8.95;100.00
46724;BME280;32463;48.298;11.620;2023-04-01T07:30:22;95131.06;;;9.03;100.00
46724;BME280;32463;48.298;11.620;2023-04-01T07:35:45;95124.56;;;9.07;99.43
46724;BME280;32463;48.298;11.620;2023-04-01T07:44:04;95141.84;;;9.36;97.44
46724;BME280;32463;48.298;11.620;2023-04-01T07:46:40;95123.81;;;9.42;95.46
46724;BME280;32463;48.298;11.620;2023-04-01T07:49:29;95137.28;;;9.23;96.48
46724;BME280;32463;48.298;11.620;2023-04-01T07:52:04;95146.75;;;9.45;98.07
46724;BME280;32463;48.298;11.620;2023-04-01T07:54:43;95147.97;;;9.50;96.60
46724;BME280;32463;48.298;11.620;2023-04-01T07:57:19;95132.97;;;9.60;94.04
46724;BME280;32463;48.298;11.620;2023-04-01T08:00:04;95140.09;;;9.58;93.38
46724;BME280;32463;48.298;11.620;2023-04-01T08:02:52;95140.00;;;9.66;92.59
46724;BME280;32463;48.298;11.620;2023-04-01T08:05:29;95148.22;;;9.55;93.22
46724;BME280;32463;48.298;11.620;2023-04-01T08:13:36;95143.63;;;9.35;90.31
46724;BME280;32463;48.298;11.620;2023-04-01T08:16:26;95134.78;;;9.44;91.93
46724;BME280;32463;48.298;11.620;2023-04-01T08:19:14;95123.69;;;9.51;91.63
46724;BME280;32463;48.298;11.620;2023-04-01T08:21:54;95141.00;;;9.65;91.72
46724;BME280;32463;48.298;11.620;2023-04-01T08:24:35;95131.34;;;9.73;90.65
46724;BME280;32463;48.298;11.620;2023-04-01T08:27:18;95128.44;;;9.83;88.07
46724;BME280;32463;48.298;11.620;2023-04-01T08:29:57;95136.97;;;9.98;85.65
46724;BME280;32463;48.298;11.620;2023-04-01T08:32:43;95136.72;;;10.14;84.43
46724;BME280;32463;48.298;11.620;2023-04-01T08:37:48;95147.94;;;10.00;81.82
46724;BME280;32463;48.298;11.620;2023-04-01T08:46:23;95136.66;;;9.87;82.41
46724;BME280;32463;48.298;11.620;2023-04-01T08:54:46;95117.59;;;10.16;80.56
46724;BME280;32463;48.298;11.620;2023-04-01T08:59:57;95118.13;;;10.04;80.58
46724;BME280;32463;48.298;11.620;2023-04-01T09:02:51;95113.56;;;10.06;81.80
46724;BME280;32463;48.298;11.620;2023-04-01T09:08:31;95120.19;;;10.86;81.21
46724;BME280;32463;48.298;11.620;2023-04-01T09:36:12;95100.59;;;10.49;75.14
46724;BME280;32463;48.298;11.620;2023-04-01T09:38:53;95115.06;;;10.93;76.58
46724;BME280;32463;48.298;11.620;2023-04-01T09:44:02;95111.47;;;10.94;72.59
46724;BME280;32463;48.298;11.620;2023-04-01T10:22:10;95083.19;;;11.53;71.93
46724;BME280;32463;48.298;11.620;2023-04-01T10:25:15;95078.19;;;11.52;73.03
46724;BME280;32463;48.298;11.620;2023-04-01T10:28:21;95080.69;;;11.79;71.14
46724;BME280;32463;48.298;11.620;2023-04-01T11:22:40;95096.53;;;10.96;93.07
46724;BME280;32463;48.298;11.620;2023-04-01T11:34:11;95103.53;;;10.39;93.55
46724;BME280;32463;48.298;11.620;2023-04-01T11:45:53;95121.63;;;9.10;100.00
46724;BME280;32463;48.298;11.620;2023-04-01T11:54:20;95147.66;;;8.56;100.00
46724;BME280;32463;48.298;11.620;2023-04-01T12:02:02;95149.59;;;8.17;100.00
46724;BME280;32463;48.298;11.620;2023-04-01T12:07:29;95145.66;;;7.98;100.00
46724;BME280;32463;48.298;11.620;2023-04-01T12:10:37;95140.97;;;8.01;100.00
46724;BME280;32463;48.298;11.620;2023-04-01T12:13:42;95141.31;;;7.98;100.00
46724;BME280;32463;48.298;11.620;2023-04-01T12:16:37;95147.97;;;8.16;100.00
46724;BME280;32463;48.298;11.620;2023-04-01T12:19:28;95147.94;;;8.24;100.00
46724;BME280;32463;48.298;11.620;2023-04-01T12:30:41;95147.31;;;8.22;100.00
46724;BME280;32463;48.298;11.620;2023-04-01T12:41:32;95145.25;;;7.94;100.00
46724;BME280;32463;48.298;11.620;2023-04-01T12:47:06;95145.97;;;7.80;100.00
46724;BME280;32463;48.298;11.620;2023-04-01T12:49:56;95147.56;;;7.81;100.00
46724;BME280;32463;48.298;11.620;2023-04-01T12:58:06;95144.97;;;7.81;100.00
46724;BME280;32463;48.298;11.620;2023-04-01T13:11:40;95137.88;;;7.83;100.00
46724;BME280;32463;48.298;11.620;2023-04-01T13:14:18;95149.19;;;7.82;100.00
46724;BME280;32463;48.298;11.620;2023-04-01T13:19:44;95149.59;;;7.94;100.00
46724;BME280;32463;48.298;11.620;2023-04-01T13:25:04;95149.69;;;8.00;100.00
46724;BME280;32463;48.298;11.620;2023-04-01T13:27:42;95142.25;;;8.05;100.00
46724;BME280;32463;48.298;11.620;2023-04-01T13:40:58;95168.72;;;8.53;100.00
46724;BME280;32463;48.298;11.620;2023-04-01T13:43:41;95158.72;;;8.50;100.00
46724;BME280;32463;48.298;11.620;2023-04-01T13:46:21;95168.78;;;8.45;100.00
46724;BME280;32463;48.298;11.620;2023-04-01T13:51:59;95157.53;;;8.38;100.00
46724;BME280;32463;48.298;11.620;2023-04-01T14:08:33;95161.38;;;8.80;100.00
46724;BME280;32463;48.298;11.620;2023-04-01T14:11:19;95154.94;;;8.75;100.00
46724;BME280;32463;48.298;11.620;2023-04-01T14:17:03;95161.31;;;8.50;100.00
46724;BME280;32463;48.298;11.620;2023-04-01T14:19:44;95151.50;;;8.46;100.00
46724;BME280;32463;48.298;11.620;2023-04-01T14:36:58;95164.22;;;8.85;100.00
46724;BME280;32463;48.298;11.620;2023-04-01T14:48:32;95161.19;;;8.96;100.00
46724;BME280;32463;48.298;11.620;2023-04-01T14:51:15;95151.75;;;9.03;100.00
46724;BME280;32463;48.298;11.620;2023-04-01T14:53:59;95150.34;;;9.15;100.00
46724;BME280;32463;48.298;11.620;2023-04-01T14:56:43;95157.19;;;9.37;100.00
46724;BME280;32463;48.298;11.620;2023-04-01T15:08:08;95158.69;;;9.47;100.00
46724;BME280;32463;48.298;11.620;2023-04-01T15:24:56;95179.47;;;9.24;100.00
46724;BME280;32463;48.298;11.620;2023-04-01T15:30:30;95186.25;;;9.10;100.00
46724;BME280;32463;48.298;11.620;2023-04-01T15:33:10;95182.41;;;9.06;100.00
46724;BME280;32463;48.298;11.620;2023-04-01T15:49:47;95196.16;;;9.21;100.00
46724;BME280;32463;48.298;11.620;2023-04-01T15:52:24;95189.66;;;9.10;100.00
46724;BME280;32463;48.298;11.620;2023-04-01T16:00:31;95183.94;;;9.15;100.00
46724;BME280;32463;48.298;11.620;2023-04-01T16:03:22;95193.66;;;9.13;100.00
46724;BME280;32463;48.298;11.620;2023-04-01T16:06:11;95195.97;;;9.08;100.00
46724;BME280;32463;48.298;11.620;2023-04-01T16:11:13;95187.69;;;9.13;100.00
46724;BME280;32463;48.298;11.620;2023-04-01T16:14:07;95195.28;;;9.14;100.00
46724;BME280;32463;48.298;11.620;2023-04-01T16:21:59;95195.28;;;9.14;100.00
46724;BME280;32463;48.298;11.620;2023-04-01T16:27:09;95195.91;;;9.16;100.00
46724;BME280;32463;48.298;11.620;2023-04-01T16:29:40;95190.72;;;9.16;100.00
46724;BME280;32463;48.298;11.620;2023-04-01T16:32:18;95194.66;;;9.12;100.00
46724;BME280;32463;48.298;11.620;2023-04-01T16:35:03;95196.59;;;9.10;100.00
46724;BME280;32463;48.298;11.620;2023-04-01T16:37:43;95195.16;;;9.07;100.00
46724;BME280;32463;48.298;11.620;2023-04-01T16:43:20;95199.09;;;9.03;100.00
46724;BME280;32463;48.298;11.620;2023-04-01T16:57:28;95220.91;;;9.01;100.00
46724;BME280;32463;48.298;11.620;2023-04-01T17:05:18;95214.84;;;8.94;100.00
46724;BME280;32463;48.298;11.620;2023-04-01T17:07:58;95213.69;;;8.96;100.00
46724;BME280;32463;48.298;11.620;2023-04-01T17:10:40;95230.69;;;8.91;100.00
46724;BME280;32463;48.298;11.620;2023-04-01T17:16:24;95225.53;;;8.91;100.00
46724;BME280;32463;48.298;11.620;2023-04-01T17:18:58;95225.69;;;8.89;100.00
46724;BME280;32463;48.298;11.620;2023-04-01T17:27:04;95226.84;;;8.87;100.00
46724;BME280;32463;48.298;11.620;2023-04-01T17:32:16;95233.44;;;8.89;100.00
46724;BME280;32463;48.298;11.620;2023-04-01T17:35:24;95233.38;;;8.83;100.00
46724;BME280;32463;48.298;11.620;2023-04-01T18:00:33;95261.84;;;8.74;100.00
46724;BME280;32463;48.298;11.620;2023-04-01T18:03:19;95257.03;;;8.71;100.00
46724;BME280;32463;48.298;11.620;2023-04-01T18:06:17;95258.34;;;8.67;100.00
46724;BME280;32463;48.298;11.620;2023-04-01T18:09:00;95271.16;;;8.61;100.00
46724;BME280;32463;48.298;11.620;2023-04-01T18:11:39;95274.25;;;8.56;100.00
46724;BME280;32463;48.298;11.620;2023-04-01T18:15:05;95272.28;;;8.58;100.00
46724;BME280;32463;48.298;11.620;2023-04-01T18:22:44;95283.69;;;8.49;100.00
46724;BME280;32463;48.298;11.620;2023-04-01T18:25:19;95288.34;;;8.54;100.00
46724;BME280;32463;48.298;11.620;2023-04-01T18:27:57;95290.75;;;8.55;100.00
46724;BME280;32463;48.298;11.620;2023-04-01T18:30:29;95289.41;;;8.59;100.00
46724;BME280;32463;48.298;11.620;2023-04-01T18:36:03;95291.94;;;8.67;100.00
46724;BME280;32463;48.298;11.620;2023-04-01T18:38:40;95295.50;;;8.66;100.00
46724;BME280;32463;48.298;11.620;2023-04-01T18:41:14;95299.22;;;8.64;100.00
46724;BME280;32463;48.298;11.620;2023-04-01T18:47:03;95301.00;;;8.63;100.00
46724;BME280;32463;48.298;11.620;2023-04-01T18:49:53;95309.72;;;8.62;100.00
46724;BME280;32463;48.298;11.620;2023-04-01T18:52:31;95307.16;;;8.62;100.00
46724;BME280;32463;48.298;11.620;2023-04-01T19:00:21;95322.00;;;8.60;100.00
46724;BME280;32463;48.298;11.620;2023-04-01T19:02:55;95308.81;;;8.55;100.00
46724;BME280;32463;48.298;11.620;2023-04-01T19:05:36;95325.47;;;8.53;100.00
46724;BME280;32463;48.298;11.620;2023-04-01T19:19:47;95330.03;;;8.42;100.00
46724;BME280;32463;48.298;11.620;2023-04-01T19:28:02;95340.53;;;8.41;100.00
46724;BME280;32463;48.298;11.620;2023-04-01T19:30:53;95348.78;;;8.36;100.00
46724;BME280;32463;48.298;11.620;2023-04-01T19:36:19;95352.88;;;8.23;100.00
46724;BME280;32463;48.298;11.620;2023-04-01T19:43:59;95361.59;;;8.14;100.00
46724;BME280;32463;48.298;11.620;2023-04-01T19:46:42;95375.47;;;8.13;100.00
46724;BME280;32463;48.298;11.620;2023-04-01T19:49:37;95362.28;;;8.07;100.00
46724;BME280;32463;48.298;11.620;2023-04-01T19:52:14;95360.81;;;8.13;100.00
46724;BME280;32463;48.298;11.620;2023-04-01T20:00:07;95370.97;;;8.06;100.00
46724;BME280;32463;48.298;11.620;2023-04-01T20:02:58;95362.28;;;7.99;100.00
46724;BME280;32463;48.298;11.620;2023-04-01T20:08:42;95372.59;;;7.99;100.00
46724;BME280;32463;48.298;11.620;2023-04-01T20:11:22;95373.59;;;7.98;100.00
46724;BME280;32463;48.298;11.620;2023-04-01T20:17:02;95392.16;;;7.94;100.00
46724;BME280;32463;48.298;11.620;2023-04-01T20:19:38;95393.78;;;7.95;100.00
46724;BME280;32463;48.298;11.620;2023-04-01T20:24:58;95396.53;;;7.93;100.00
46724;BME280;32463;48.298;11.620;2023-04-01T20:27:31;95393.31;;;7.91;100.00
46724;BME280;32463;48.298;11.620;2023-04-01T20:30:25;95402.00;;;7.90;100.00
46724;BME280;32463;48.298;11.620;2023-04-01T20:39:09;95408.47;;;7.78;100.00
46724;BME280;32463;48.298;11.620;2023-04-01T20:45:08;95399.13;;;7.69;100.00
46724;BME280;32463;48.298;11.620;2023-04-01T20:50:50;95405.91;;;7.70;100.00
46724;BME280;32463;48.298;11.620;2023-04-01T20:53:27;95404.28;;;7.69;100.00
46724;BME280;32463;48.298;11.620;2023-04-01T21:02:00;95402.34;;;7.71;100.00
46724;BME280;32463;48.298;11.620;2023-04-01T21:07:33;95411.06;;;7.70;100.00
46724;BME280;32463;48.298;11.620;2023-04-01T21:10:35;95416.22;;;7.70;100.00
46724;BME280;32463;48.298;11.620;2023-04-01T21:16:14;95418.19;;;7.60;100.00
46724;BME280;32463;48.298;11.620;2023-04-01T21:24:50;95419.16;;;7.59;100.00
46724;BME280;32463;48.298;11.620;2023-04-01T21:35:48;95431.72;;;7.54;100.00
46724;BME280;32463;48.298;11.620;2023-04-01T21:38:37;95435.28;;;7.53;100.00
46724;BME280;32463;48.298;11.620;2023-04-01T21:44:18;95441.41;;;7.60;100.00
46724;BME280;32463;48.298;11.620;2023-04-01T21:50:00;95445.25;;;7.56;100.00
46724;BME280;32463;48.298;11.620;2023-04-01T21:52:55;95443.66;;;7.55;100.00
46724;BME280;32463;48.298;11.620;2023-04-01T22:09:18;95455.25;;;7.59;100.00
46724;BME280;32463;48.298;11.620;2023-04-01T22:14:33;95462.34;;;7.57;100.00
46724;BME280;32463;48.298;11.620;2023-04-01T22:20:50;95465.91;;;7.56;100.00
46724;BME280;32463;48.298;11.620;2023-04-01T22:23:39;95459.78;;;7.57;100.00
46724;BME280;32463;48.298;11.620;2023-04-01T22:26:13;95469.28;;;7.56;100.00
46724;BME280;32463;48.298;11.620;2023-04-01T22:28:45;95470.41;;;7.54;100.00
46724;BME280;32463;48.298;11.620;2023-04-01T22:31:23;95462.66;;;7.54;100.00
46724;BME280;32463;48.298;11.620;2023-04-01T22:33:57;95463.47;;;7.54;100.00
46724;BME280;32463;48.298;11.620;2023-04-01T22:36:38;95471.38;;;7.53;100.00
46724;BME280;32463;48.298;11.620;2023-04-01T22:41:57;95470.41;;;7.46;100.00
46724;BME280;32463;48.298;11.620;2023-04-01T22:49:59;95473.94;;;7.44;100.00
46724;BME280;32463;48.298;11.620;2023-04-01T22:52:42;95473.94;;;7.44;100.00